createdAt,value
2018-12-22T00:02:05.609Z,99828.20
2018-12-22T00:04:32.876Z,99837.52
2018-12-22T00:07:00.230Z,99832.52
2018-12-22T00:09:27.618Z,99843.87
2018-12-22T00:11:54.877Z,99835.78
2018-12-22T00:14:22.931Z,99842.46
2018-12-22T00:16:50.188Z,99840.13
2018-12-22T00:19:17.450Z,99843.13
2018-12-22T00:21:44.708Z,99835.30
2018-12-22T00:24:11.998Z,99836.11
2018-12-22T00:26:39.299Z,99845.67
2018-12-22T00:29:06.557Z,99840.81
2018-12-22T00:31:33.809Z,99847.67
2018-12-22T00:34:01.161Z,99845.65
2018-12-22T00:36:28.409Z,99848.55
2018-12-22T00:38:55.694Z,99849.20
2018-12-22T00:41:23.104Z,99849.56
2018-12-22T00:43:50.414Z,99842.55
2018-12-22T00:46:17.899Z,99847.34
2018-12-22T00:48:45.236Z,99851.16
2018-12-22T00:51:12.480Z,99849.63
2018-12-22T00:53:39.748Z,99847.11
2018-12-22T00:56:08.102Z,99848.71
2018-12-22T00:58:35.402Z,99856.59
2018-12-22T01:01:02.668Z,99859.23
2018-12-22T01:03:29.985Z,99864.61
2018-12-22T01:05:57.356Z,99862.64
2018-12-22T01:08:24.618Z,99865.81
2018-12-22T01:10:51.896Z,99866.14
2018-12-22T01:13:19.143Z,99876.94
2018-12-22T01:15:46.434Z,99868.27
2018-12-22T01:18:13.690Z,99878.79
2018-12-22T01:20:40.959Z,99879.04
2018-12-22T01:23:08.255Z,99876.73
2018-12-22T01:25:35.503Z,99875.52
2018-12-22T01:28:02.752Z,99881.67
2018-12-22T01:30:30.029Z,99877.22
2018-12-22T01:32:57.281Z,99880.98
2018-12-22T01:35:24.534Z,99884.34
2018-12-22T01:37:51.833Z,99883.05
2018-12-22T01:40:19.116Z,99885.13
2018-12-22T01:42:46.386Z,99881.13
2018-12-22T01:45:13.671Z,99875.28
2018-12-22T01:47:40.912Z,99877.08
2018-12-22T01:50:08.289Z,99875.12
2018-12-22T01:52:35.561Z,99882.44
2018-12-22T01:55:03.454Z,99879.20
2018-12-22T01:57:30.690Z,99879.37
2018-12-22T01:59:57.993Z,99879.67
2018-12-22T02:02:25.246Z,99886.11
2018-12-22T02:04:52.542Z,99887.92
2018-12-22T02:07:19.818Z,99884.02
2018-12-22T02:09:47.101Z,99874.92
2018-12-22T02:12:14.351Z,99876.89
2018-12-22T02:14:41.642Z,99883.05
2018-12-22T02:17:09.007Z,99894.17
2018-12-22T02:19:36.945Z,99894.63
2018-12-22T02:22:04.241Z,99899.23
2018-12-22T02:24:31.514Z,99899.45
2018-12-22T02:26:58.892Z,99883.98
2018-12-22T02:29:26.165Z,99890.72
2018-12-22T02:31:53.441Z,99885.77
2018-12-22T02:34:20.707Z,99891.63
2018-12-22T02:36:47.953Z,99873.65
2018-12-22T02:39:15.182Z,99887.47
2018-12-22T02:41:42.460Z,99874.86
2018-12-22T02:44:09.684Z,99881.98
2018-12-22T02:46:36.947Z,99876.84
2018-12-22T02:49:04.221Z,99871.22
2018-12-22T02:51:31.502Z,99865.67
2018-12-22T02:53:58.757Z,99858.04
2018-12-22T02:56:26.280Z,99866.22
2018-12-22T02:58:53.524Z,99867.46
2018-12-22T03:01:20.781Z,99868.75
2018-12-22T03:03:48.033Z,99859.44
2018-12-22T03:06:15.753Z,99860.88
2018-12-22T03:08:42.991Z,99853.12
2018-12-22T03:11:10.264Z,99845.95
2018-12-22T03:13:37.529Z,99849.25
2018-12-22T03:16:04.781Z,99847.41
2018-12-22T03:18:32.035Z,99838.58
2018-12-22T03:20:59.302Z,99848.09
2018-12-22T03:23:26.568Z,99840.07
2018-12-22T03:25:53.855Z,99840.16
2018-12-22T03:28:21.115Z,99838.41
2018-12-22T03:30:48.368Z,99829.73
2018-12-22T03:33:15.645Z,99835.77
2018-12-22T03:35:42.943Z,99830.38
2018-12-22T03:38:10.191Z,99821.32
2018-12-22T03:40:37.453Z,99808.52
2018-12-22T03:43:04.700Z,99806.28
2018-12-22T03:45:31.957Z,99806.80
2018-12-22T03:47:59.217Z,99804.32
2018-12-22T03:50:26.484Z,99802.47
2018-12-22T03:52:53.727Z,99799.11
2018-12-22T03:55:21.005Z,99796.95
2018-12-22T03:57:55.192Z,99798.35
2018-12-22T04:00:22.457Z,99784.11
2018-12-22T04:02:49.740Z,99784.57
2018-12-22T04:05:16.978Z,99778.42
2018-12-22T04:07:44.245Z,99770.63
2018-12-22T04:10:11.505Z,99772.48
2018-12-22T04:12:38.776Z,99764.66
2018-12-22T04:15:06.278Z,99771.18
2018-12-22T04:17:33.548Z,99762.03
2018-12-22T04:20:00.781Z,99653.48
2018-12-22T04:22:28.050Z,99755.91
2018-12-22T04:24:55.322Z,99754.21
2018-12-22T04:27:22.586Z,99755.16
2018-12-22T04:29:49.826Z,99747.09
2018-12-22T04:32:17.093Z,99748.35
2018-12-22T04:34:44.364Z,99753.31
2018-12-22T04:37:11.700Z,99749.44
2018-12-22T04:39:38.973Z,99747.64
2018-12-22T04:42:06.242Z,99748.45
2018-12-22T04:44:33.472Z,99751.45
2018-12-22T04:47:00.749Z,99761.59
2018-12-22T04:49:27.992Z,99763.58
2018-12-22T04:51:55.610Z,99764.98
2018-12-22T04:54:22.885Z,99767.09
2018-12-22T04:56:50.777Z,99768.40
2018-12-22T04:59:18.397Z,99765.50
2018-12-22T05:01:45.693Z,99769.54
2018-12-22T05:04:12.976Z,99761.30
2018-12-22T05:06:40.348Z,99769.44
2018-12-22T05:09:08.170Z,99760.70
2018-12-22T05:11:35.468Z,99768.69
2018-12-22T05:14:02.758Z,99758.84
2018-12-22T05:16:30.018Z,99757.61
2018-12-22T05:18:57.325Z,99755.19
2018-12-22T05:21:24.574Z,99755.00
2018-12-22T05:23:51.816Z,99752.75
2018-12-22T05:26:19.075Z,99754.67
2018-12-22T05:28:46.381Z,99749.81
2018-12-22T05:31:13.653Z,99751.02
2018-12-22T05:33:40.965Z,99739.48
2018-12-22T05:36:08.230Z,99724.27
2018-12-22T05:38:35.875Z,99724.57
2018-12-22T05:41:03.562Z,99728.91
2018-12-22T05:43:31.448Z,99729.75
2018-12-22T05:45:58.701Z,99726.95
2018-12-22T05:48:25.957Z,99730.98
2018-12-22T05:50:53.332Z,99729.58
2018-12-22T05:53:20.686Z,99716.75
2018-12-22T05:55:47.985Z,99722.42
2018-12-22T05:58:15.518Z,99722.94
2018-12-22T06:00:42.822Z,99721.57
2018-12-22T06:03:10.152Z,99734.34
2018-12-22T06:05:37.431Z,99746.95
2018-12-22T06:08:04.810Z,99732.19
2018-12-22T06:10:32.082Z,99719.78
2018-12-22T06:12:59.364Z,99722.88
2018-12-22T06:15:26.614Z,99729.10
2018-12-22T06:17:54.110Z,99720.44
2018-12-22T06:20:21.366Z,99720.27
2018-12-22T06:22:48.644Z,99730.02
2018-12-22T06:25:15.996Z,99736.59
2018-12-22T06:27:43.295Z,99756.99
2018-12-22T06:30:10.566Z,99755.85
2018-12-22T06:32:37.846Z,99748.84
2018-12-22T06:35:06.196Z,99739.23
2018-12-22T06:37:34.512Z,99757.25
2018-12-22T06:40:01.834Z,99749.76
2018-12-22T06:42:29.401Z,99759.79
2018-12-22T06:44:56.667Z,99748.75
2018-12-22T06:47:24.168Z,99754.27
2018-12-22T06:49:51.446Z,99761.16
2018-12-22T06:52:18.758Z,99769.53
2018-12-22T06:54:46.041Z,99797.36
2018-12-22T06:57:13.280Z,99793.09
2018-12-22T06:59:40.631Z,99799.75
2018-12-22T07:02:07.939Z,99797.30
2018-12-22T07:04:35.217Z,99796.95
2018-12-22T07:07:02.489Z,99806.72
2018-12-22T07:09:29.779Z,99819.20
2018-12-22T07:11:57.210Z,99820.86
2018-12-22T07:14:24.467Z,99833.07
2018-12-22T07:16:51.692Z,99849.33
2018-12-22T07:19:18.924Z,99867.02
2018-12-22T07:21:46.226Z,99872.31
2018-12-22T07:24:13.985Z,99873.24
2018-12-22T07:26:41.327Z,99872.62
2018-12-22T07:29:09.721Z,99875.91
2018-12-22T07:31:36.967Z,99877.97
2018-12-22T07:34:04.251Z,99896.41
2018-12-22T07:36:31.461Z,99898.02
2018-12-22T07:38:58.746Z,99901.36
2018-12-22T07:41:26.233Z,99903.93
2018-12-22T07:43:53.478Z,99902.58
2018-12-22T07:46:20.720Z,99908.69
2018-12-22T07:48:47.988Z,99906.37
2018-12-22T07:51:15.519Z,99906.02
2018-12-22T07:53:42.801Z,99909.23
2018-12-22T07:56:10.041Z,99921.38
2018-12-22T07:58:37.330Z,99933.41
2018-12-22T08:01:04.564Z,99952.19
2018-12-22T08:03:31.842Z,99955.64
2018-12-22T08:05:59.523Z,99966.44
2018-12-22T08:08:27.411Z,99977.19
2018-12-22T08:10:54.727Z,99988.91
2018-12-22T08:13:22.140Z,100001.83
2018-12-22T08:15:49.471Z,100024.59
2018-12-22T08:18:16.753Z,100035.87
2018-12-22T08:20:44.025Z,100055.62
2018-12-22T08:23:11.284Z,100065.61
2018-12-22T08:25:38.654Z,100077.09
2018-12-22T08:28:06.492Z,100087.48
2018-12-22T08:30:33.840Z,100095.58
2018-12-22T08:33:01.077Z,100102.16
2018-12-22T08:35:28.392Z,100115.44
2018-12-22T08:37:55.664Z,100122.42
2018-12-22T08:40:22.928Z,100128.27
2018-12-22T08:42:50.230Z,100129.00
2018-12-22T08:45:17.549Z,100136.88
2018-12-22T08:47:44.844Z,100139.23
2018-12-22T08:50:12.244Z,100146.19
2018-12-22T08:52:39.501Z,100151.71
2018-12-22T08:55:07.549Z,100157.00
2018-12-22T08:57:34.804Z,100157.78
2018-12-22T09:00:02.424Z,100166.69
2018-12-22T09:02:29.649Z,100172.16
2018-12-22T09:04:56.955Z,100173.47
2018-12-22T09:07:24.345Z,100180.61
2018-12-22T09:09:51.608Z,100186.03
2018-12-22T09:12:18.848Z,100198.27
2018-12-22T09:14:46.244Z,100204.59
2018-12-22T09:17:13.488Z,100200.36
2018-12-22T09:19:40.773Z,100211.42
2018-12-22T09:22:08.072Z,100212.53
2018-12-22T09:24:35.317Z,100217.86
2018-12-22T09:27:02.638Z,100219.05
2018-12-22T09:29:29.958Z,100227.36
2018-12-22T09:31:57.221Z,100231.14
2018-12-22T09:34:24.493Z,100237.02
2018-12-22T09:36:51.837Z,100244.81
2018-12-22T09:39:19.187Z,100247.05
2018-12-22T09:41:46.464Z,100257.60
2018-12-22T09:44:13.843Z,100262.93
2018-12-22T09:46:41.109Z,100267.48
2018-12-22T09:49:08.361Z,100283.50
2018-12-22T09:51:35.643Z,100287.05
2018-12-22T09:54:02.887Z,100292.25
2018-12-22T09:56:30.148Z,100296.27
2018-12-22T09:58:57.374Z,100297.69
2018-12-22T10:03:58.701Z,100311.45
2018-12-22T10:06:25.960Z,100312.68
2018-12-22T10:08:53.208Z,100316.20
2018-12-22T10:11:20.463Z,100313.26
2018-12-22T10:13:47.701Z,100318.87
2018-12-22T10:16:14.943Z,100326.22
2018-12-22T10:18:42.216Z,100321.92
2018-12-22T10:21:09.813Z,100327.42
2018-12-22T10:23:37.068Z,100331.43
2018-12-22T10:26:04.497Z,100335.61
2018-12-22T10:28:31.724Z,100339.45
2018-12-22T10:30:58.966Z,100336.67
2018-12-22T10:33:26.213Z,100335.05
2018-12-22T10:35:53.518Z,100344.17
2018-12-22T10:38:20.739Z,100348.41
2018-12-22T10:40:47.973Z,100347.05
2018-12-22T10:43:15.321Z,100351.61
2018-12-22T10:45:42.620Z,100353.56
2018-12-22T10:48:09.866Z,100356.31
2018-12-22T10:50:37.119Z,100357.55
2018-12-22T10:53:04.386Z,100359.25
2018-12-22T10:55:31.688Z,100364.33
2018-12-22T10:57:59.994Z,100362.55
2018-12-22T11:00:27.671Z,100364.90
2018-12-22T11:02:54.921Z,100374.16
2018-12-22T11:05:22.145Z,100369.53
2018-12-22T11:07:49.466Z,100374.29
2018-12-22T11:10:19.736Z,100371.11
2018-12-22T11:12:47.011Z,100345.55
2018-12-22T11:15:14.239Z,100382.91
2018-12-22T11:17:41.566Z,100380.55
2018-12-22T11:20:09.072Z,100389.36
2018-12-22T11:22:36.336Z,100381.77
2018-12-22T11:25:08.565Z,100382.74
2018-12-22T11:27:35.819Z,100380.91
2018-12-22T11:30:03.644Z,100371.20
2018-12-22T11:32:30.919Z,100370.54
2018-12-22T11:34:58.154Z,100370.75
2018-12-22T11:37:25.479Z,100373.73
2018-12-22T11:39:53.150Z,100381.50
2018-12-22T11:42:20.445Z,100382.47
2018-12-22T11:44:47.696Z,100388.61
2018-12-22T11:47:28.225Z,100390.48
2018-12-22T11:49:55.509Z,100397.52
2018-12-22T11:52:22.778Z,100394.44
2018-12-22T11:54:50.062Z,100391.00
2018-12-22T11:57:17.329Z,100391.69
2018-12-22T11:59:44.581Z,100394.57
2018-12-22T12:02:11.843Z,100390.64
2018-12-22T12:04:39.083Z,100393.06
2018-12-22T12:07:06.346Z,100395.20
2018-12-22T12:09:33.615Z,100397.36
2018-12-22T12:12:00.922Z,100395.98
2018-12-22T12:14:29.425Z,100396.84
2018-12-22T12:17:05.100Z,100403.58
2018-12-22T12:19:33.799Z,100405.59
2018-12-22T12:22:01.093Z,100417.36
2018-12-22T12:24:28.385Z,100417.18
2018-12-22T12:26:55.618Z,100421.80
2018-12-22T12:29:22.905Z,100422.20
2018-12-22T12:31:52.269Z,100407.83
2018-12-22T12:34:19.581Z,100417.05
2018-12-22T12:36:46.892Z,100429.58
2018-12-22T12:39:15.247Z,100431.03
2018-12-22T12:41:42.648Z,100433.51
2018-12-22T12:44:09.957Z,100438.28
2018-12-22T12:46:41.394Z,100429.64
2018-12-22T12:49:08.789Z,100426.14
2018-12-22T12:51:36.167Z,100435.66
2018-12-22T12:54:03.548Z,100445.41
2018-12-22T12:56:31.121Z,100441.58
2018-12-22T12:58:58.376Z,100442.75
2018-12-22T13:01:25.849Z,100441.95
2018-12-22T13:03:53.127Z,100441.13
2018-12-22T13:06:20.612Z,100440.67
2018-12-22T13:08:47.880Z,100452.24
2018-12-22T13:11:15.150Z,100451.03
2018-12-22T13:13:51.883Z,100454.40
2018-12-22T13:16:19.154Z,100467.45
2018-12-22T13:18:46.438Z,100469.75
2018-12-22T13:21:14.000Z,100467.94
2018-12-22T13:23:41.284Z,100480.52
2018-12-22T13:26:08.538Z,100481.03
2018-12-22T13:28:35.832Z,100479.97
2018-12-22T13:31:03.196Z,100494.14
2018-12-22T13:33:30.967Z,100493.12
2018-12-22T13:35:58.333Z,100504.87
2018-12-22T13:38:26.386Z,100494.10
2018-12-22T13:40:55.460Z,100493.98
2018-12-22T13:43:22.884Z,100504.28
2018-12-22T13:45:50.259Z,100506.01
2018-12-22T13:48:17.641Z,100512.98
2018-12-22T13:50:45.043Z,100532.03
2018-12-22T13:53:12.368Z,100523.30
2018-12-22T13:55:39.658Z,100514.48
2018-12-22T13:58:07.017Z,100518.52
2018-12-22T14:00:39.105Z,100521.72
2018-12-22T14:03:08.832Z,100522.55
2018-12-22T14:05:36.212Z,100533.84
2018-12-22T14:08:03.512Z,100529.06
2018-12-22T14:10:30.823Z,100545.91
2018-12-22T14:12:58.056Z,100541.49
2018-12-22T14:15:25.479Z,100530.12
2018-12-22T14:18:03.199Z,100533.66
2018-12-22T14:20:31.915Z,100531.63
2018-12-22T14:23:00.320Z,100536.34
2018-12-22T14:25:29.498Z,100537.00
2018-12-22T14:27:56.768Z,100540.27
2018-12-22T14:30:24.077Z,100537.72
2018-12-22T14:32:51.603Z,100541.28
2018-12-22T14:35:53.169Z,100553.74
2018-12-22T14:38:21.324Z,100549.06
2018-12-22T14:40:48.745Z,100553.24
2018-12-22T14:43:15.973Z,100553.38
2018-12-22T14:45:43.299Z,100561.91
2018-12-22T14:48:10.560Z,100559.69
2018-12-22T14:50:38.024Z,100561.51
2018-12-22T14:53:05.952Z,100563.28
2018-12-22T14:55:33.240Z,100570.55
2018-12-22T14:58:21.286Z,100582.41
2018-12-22T15:00:48.624Z,100587.17
2018-12-22T15:03:15.857Z,100594.62
2018-12-22T15:05:43.232Z,100592.50
2018-12-22T15:08:10.571Z,100604.08
2018-12-22T15:10:37.990Z,100605.72
2018-12-22T15:13:05.254Z,100611.50
2018-12-22T15:15:32.725Z,100614.86
2018-12-22T15:17:59.997Z,100622.33
2018-12-22T15:20:29.250Z,100628.13
2018-12-22T15:22:56.523Z,100633.19
2018-12-22T15:25:23.917Z,100639.25
2018-12-22T15:27:51.973Z,100640.39
2018-12-22T15:30:20.134Z,100643.92
2018-12-22T15:32:54.387Z,100645.49
2018-12-22T15:35:16.743Z,100640.05
2018-12-22T15:37:44.083Z,100648.73
2018-12-22T15:40:11.520Z,100654.69
2018-12-22T15:42:39.201Z,100663.14
2018-12-22T15:45:09.620Z,100670.47
2018-12-22T15:47:37.637Z,100661.39
2018-12-22T15:50:07.187Z,100665.36
2018-12-22T15:52:34.558Z,100668.94
2018-12-22T15:55:01.862Z,100672.69
2018-12-22T15:57:29.288Z,100669.59
2018-12-22T15:59:56.687Z,100679.53
2018-12-22T16:02:23.958Z,100683.57
2018-12-22T16:04:51.306Z,100690.16
2018-12-22T16:07:18.649Z,100687.59
2018-12-22T16:09:46.113Z,100698.03
2018-12-22T16:12:13.409Z,100710.22
2018-12-22T16:14:40.726Z,100704.09
2018-12-22T16:17:08.127Z,100701.55
2018-12-22T16:19:35.345Z,100706.93
2018-12-22T16:22:02.835Z,100708.11
2018-12-22T16:24:30.097Z,100712.55
2018-12-22T16:26:57.382Z,100715.64
2018-12-22T16:29:28.683Z,100722.44
2018-12-22T16:31:56.137Z,100730.30
2018-12-22T16:34:23.372Z,100739.09
2018-12-22T16:36:50.671Z,100749.16
2018-12-22T16:39:17.945Z,100749.02
2018-12-22T16:41:45.433Z,100751.98
2018-12-22T16:44:15.665Z,100752.67
2018-12-22T16:46:43.020Z,100752.33
2018-12-22T16:49:10.349Z,100754.08
2018-12-22T16:51:37.650Z,100756.80
2018-12-22T16:54:04.928Z,100763.86
2018-12-22T16:56:32.187Z,100764.83
2018-12-22T16:59:00.324Z,100764.41
2018-12-22T17:01:45.717Z,100766.47
2018-12-22T17:04:13.129Z,100775.20
2018-12-22T17:06:41.283Z,100775.20
2018-12-22T17:09:10.913Z,100780.41
2018-12-22T17:11:37.997Z,100790.84
2018-12-22T17:14:05.293Z,100803.48
2018-12-22T17:16:32.643Z,100795.21
2018-12-22T17:19:00.022Z,100806.05
2018-12-22T17:22:50.617Z,100803.52
2018-12-22T17:25:25.568Z,100801.78
2018-12-22T17:27:52.899Z,100806.13
2018-12-22T17:30:20.200Z,100766.66
2018-12-22T17:32:47.487Z,100811.84
2018-12-22T17:35:15.363Z,100811.48
2018-12-22T17:37:42.639Z,100809.69
2018-12-22T17:40:12.556Z,100817.15
2018-12-22T17:42:39.913Z,100824.44
2018-12-22T17:45:08.287Z,100821.51
2018-12-22T17:47:35.541Z,100823.94
2018-12-22T17:50:03.085Z,100827.85
2018-12-22T17:52:30.334Z,100830.55
2018-12-22T17:54:57.625Z,100835.35
2018-12-22T17:57:25.576Z,100841.38
2018-12-22T17:59:53.001Z,100847.08
2018-12-22T18:02:20.255Z,100847.41
2018-12-22T18:04:47.601Z,100856.83
2018-12-22T18:07:19.775Z,100860.78
2018-12-22T18:09:47.074Z,100866.84
2018-12-22T18:12:14.377Z,100863.38
2018-12-22T18:14:41.666Z,100866.77
2018-12-22T18:17:15.758Z,100874.58
2018-12-22T18:19:43.013Z,100876.33
2018-12-22T18:22:10.365Z,100878.09
2018-12-22T18:24:38.125Z,100886.39
2018-12-22T18:27:05.844Z,100883.34
2018-12-22T18:29:33.874Z,100892.91
2018-12-22T18:32:01.139Z,100896.03
2018-12-22T18:34:28.408Z,100894.25
2018-12-22T18:36:55.821Z,100893.80
2018-12-22T18:39:23.117Z,100898.13
2018-12-22T18:41:50.472Z,100900.25
2018-12-22T18:44:17.787Z,100911.20
2018-12-22T18:46:45.177Z,100910.22
2018-12-22T18:49:12.416Z,100921.55
2018-12-22T18:51:39.676Z,100926.31
2018-12-22T18:54:06.949Z,100921.51
2018-12-22T18:56:34.223Z,100925.56
2018-12-22T18:59:01.597Z,100924.89
2018-12-22T19:01:28.905Z,100935.58
2018-12-22T19:03:56.172Z,100932.98
2018-12-22T19:06:23.433Z,100932.26
2018-12-22T19:08:52.024Z,100934.86
2018-12-22T19:11:20.966Z,100937.50
2018-12-22T19:13:48.358Z,100899.20
2018-12-22T19:16:15.717Z,100948.41
2018-12-22T19:18:42.971Z,100948.38
2018-12-22T19:21:10.266Z,100956.73
2018-12-22T19:23:37.598Z,100961.09
2018-12-22T19:26:04.881Z,100964.52
2018-12-22T19:28:32.110Z,100963.63
2018-12-22T19:30:59.414Z,100962.73
2018-12-22T19:33:26.664Z,100972.27
2018-12-22T19:35:54.213Z,100972.23
2018-12-22T19:38:21.489Z,100979.26
2018-12-22T19:40:48.777Z,100974.97
2018-12-22T19:43:16.031Z,100978.46
2018-12-22T19:45:43.285Z,100972.37
2018-12-22T19:48:10.546Z,100979.64
2018-12-22T19:50:37.806Z,100971.38
2018-12-22T19:53:05.061Z,100973.19
2018-12-22T19:55:33.214Z,100977.92
2018-12-22T19:58:00.507Z,100978.84
2018-12-22T20:00:27.882Z,100988.09
2018-12-22T20:02:55.244Z,100978.53
2018-12-22T20:05:22.606Z,100979.41
2018-12-22T20:07:49.913Z,100981.19
2018-12-22T20:10:17.184Z,100985.42
2018-12-22T20:12:44.481Z,100986.25
2018-12-22T20:15:11.769Z,100986.63
2018-12-22T20:17:39.171Z,100987.67
2018-12-22T20:20:07.532Z,100985.48
2018-12-22T20:22:34.881Z,100995.09
2018-12-22T20:25:02.203Z,100996.34
2018-12-22T20:27:29.589Z,100990.80
2018-12-22T20:29:57.039Z,101003.36
2018-12-22T20:32:24.346Z,101007.20
2018-12-22T20:34:51.634Z,101005.52
2018-12-22T20:37:18.948Z,100998.45
2018-12-22T20:39:46.206Z,101002.91
2018-12-22T20:42:13.557Z,101011.97
2018-12-22T20:44:40.816Z,101009.92
2018-12-22T20:47:08.093Z,101024.06
2018-12-22T20:49:35.874Z,101015.27
2018-12-22T20:52:03.261Z,101023.28
2018-12-22T20:54:30.543Z,101032.98
2018-12-22T20:56:57.854Z,101028.49
2018-12-22T20:59:25.280Z,101032.02
2018-12-22T21:01:52.574Z,101043.37
2018-12-22T21:04:20.224Z,101047.72
2018-12-22T21:06:47.604Z,101046.02
2018-12-22T21:09:14.926Z,101053.47
2018-12-22T21:11:42.201Z,101052.09
2018-12-22T21:14:09.496Z,101057.69
2018-12-22T21:16:36.761Z,101055.60
2018-12-22T21:19:04.049Z,101061.59
2018-12-22T21:21:31.289Z,101060.02
2018-12-22T21:23:58.567Z,101060.44
2018-12-22T21:26:25.821Z,101056.52
2018-12-22T21:28:53.095Z,101059.13
2018-12-22T21:31:20.495Z,101069.12
2018-12-22T21:33:47.769Z,101059.58
2018-12-22T21:36:15.010Z,101070.30
2018-12-22T21:38:42.283Z,101071.47
2018-12-22T21:41:10.265Z,101072.90
2018-12-22T21:43:37.549Z,101076.31
2018-12-22T21:46:04.906Z,101078.05
2018-12-22T21:48:32.200Z,101077.08
2018-12-22T21:50:59.526Z,101080.69
2018-12-22T21:53:26.804Z,101083.63
2018-12-22T21:55:54.070Z,101087.97
2018-12-22T21:58:21.352Z,101089.75
2018-12-22T22:00:48.583Z,101094.08
2018-12-22T22:03:15.897Z,101086.22
2018-12-22T22:05:43.141Z,101088.02
2018-12-22T22:08:10.368Z,101096.69
2018-12-22T22:10:38.010Z,101091.10
2018-12-22T22:13:05.376Z,101092.41
2018-12-22T22:15:32.811Z,101093.27
2018-12-22T22:18:00.064Z,101091.52
2018-12-22T22:20:27.316Z,101093.30
2018-12-22T22:22:54.590Z,101098.99
2018-12-22T22:25:21.866Z,101097.20
2018-12-22T22:27:49.085Z,101105.75
2018-12-22T22:30:16.344Z,101103.19
2018-12-22T22:32:43.707Z,101110.57
2018-12-22T22:35:10.974Z,101105.78
2018-12-22T22:37:38.214Z,101103.73
2018-12-22T22:40:05.696Z,101102.34
2018-12-22T22:42:32.918Z,101102.33
2018-12-22T22:45:00.236Z,101106.27
2018-12-22T22:47:27.668Z,101112.63
2018-12-22T22:49:54.893Z,101110.55
2018-12-22T22:52:22.131Z,101120.89
2018-12-22T22:54:49.382Z,101114.91
2018-12-22T22:57:16.697Z,101114.02
2018-12-22T22:59:44.126Z,101115.73
2018-12-22T23:02:11.340Z,101118.39
2018-12-22T23:04:38.585Z,101117.92
2018-12-22T23:07:05.838Z,101111.80
2018-12-22T23:09:33.097Z,101113.99
2018-12-22T23:12:00.451Z,101115.66
2018-12-22T23:14:27.734Z,101113.55
2018-12-22T23:16:55.072Z,101113.91
2018-12-22T23:19:22.383Z,101117.43
2018-12-22T23:21:49.631Z,101115.66
2018-12-22T23:24:16.881Z,101114.80
2018-12-22T23:26:44.149Z,101123.05
2018-12-22T23:29:11.425Z,101124.33
2018-12-22T23:31:38.648Z,101119.10
2018-12-22T23:34:06.079Z,101094.87
2018-12-22T23:36:33.346Z,101125.15
2018-12-22T23:39:00.629Z,101122.59
2018-12-22T23:41:27.889Z,101130.36
2018-12-22T23:43:55.142Z,101131.64
2018-12-22T23:46:22.425Z,101129.87
2018-12-22T23:48:49.677Z,101134.29
2018-12-22T23:51:17.108Z,101129.01
2018-12-22T23:53:44.347Z,101130.75
2018-12-22T23:56:11.784Z,101127.80
2018-12-22T23:58:39.020Z,101131.30
